Terminal Aerodrome Forecast
Issued by NWS Bismarck, ND

Home | Current Version | Previous Version | Text Only | Print | Product List | Glossary On
Versions: 1 2 3 4 5 6 7 8 9 10 11 12 13 14
000
FTUS43 KBIS 112300
TAFISN
TAF
KISN 112326Z 1200/1224 36011KT P6SM FEW150
     FM120200 VRB06KT P6SM SKC
     FM120900 00000KT 2SM BR SKC
     FM121300 28015KT P6SM FEW250=

USA.gov is the U.S. government's official web portal to all federal, state and local government web resources and services.